ADDS METAR Data INFO
IDs: Format: Raw Decoded Include TAF

Data at: 1249 UTC 19 Oct 2017

KLAL 191145Z 01005KT 10SM SKC 20/20 A3009
KLAL 190945Z 01008KT 10SM SKC 21/21 A3006
KLAL 190935Z AUTO 01007KT 10SM CLR 20/20 A3006 RMK AO2
KLAL 190915Z AUTO 01007KT 10SM CLR 20/20 A3006 RMK AO2
KLAL 190855Z AUTO 01006KT 10SM CLR 20/20 A3006 RMK AO2
KLAL 190835Z AUTO 36006KT 10SM CLR 20/20 A3006 RMK AO2
KLAL 190815Z AUTO 10SM SCT005 20/20 A3006 RMK AO2
KLAL 190755Z AUTO 10SM SCT005 20/20 A3006 RMK AO2
KLAL 190735Z AUTO 36006KT 10SM SCT005 SCT026 20/20 A3006 RMK AO2
KLAL 190615Z AUTO 02007KT 7SM CLR 20/20 A3009 RMK AO2
KLAL 190555Z AUTO 01007KT 10SM SCT009 SCT022 20/20 A3009 RMK AO2
KLAL 190535Z AUTO 36006KT 10SM SCT009 SCT022 20/20 A3010 RMK AO2
KLAL 190515Z AUTO 36004KT 10SM CLR 21/20 A3011 RMK AO2
KLAL 190455Z AUTO 02006KT 10SM CLR 21/20 A3011 RMK AO2
KLAL 190145Z 04007KT 10SM SCT120 23/18 A3012
KLAL 190045Z 05009KT 10SM SCT120 24/18 A3012
KLAL 182347Z 05006KT 10SM SCT120 24/17 A3009
KLAL 182247Z 05011G16KT 10SM SCT049 26/18 A3008
KLAL 182150Z 07015G22KT 10SM BKN038 27/19 A3008
KLAL 182050Z 07013G18KT 10SM SCT032 BKN050 27/20 A3007
KLAL 181950Z 04014KT 10SM BKN026 BKN080 28/21 A3007
KLAL 181850Z 06017G21KT 10SM BKN028 BKN050 28/22 A3007
KLAL 181750Z 05013G20KT 10SM SCT026 27/21 A3008
KLAL 181650Z 06010KT 10SM BKN027 BKN050 27/21 A3010
KLAL 181552Z 06011G16KT 10SM BKN023 OVC150 27/21 A3012
KLAL 181450Z 05012G16KT 10SM BKN014 26/22 A3013
KLAL 181354Z 03008KT 10SM BKN011 OVC075 23/22 A3012
KLAL 181250Z 04007KT 10SM SCT008 22/22 A3010
KLAL 181150Z 03007KT 10SM OVC007 22/22 A3009
KLAL 181050Z 04004KT 10SM OVC006 21/21 A3007
KLAL 181026Z 02006KT 10SM BKN008 21/21 A3005
KLAL 180952Z 03004KT 10SM SCT008 21/21 A3005
KLAL 180935Z AUTO 01004KT 10SM SCT008 20/20 A3005 RMK AO2
KLAL 180915Z AUTO 02007KT 10SM OVC008 21/20 A3005 RMK AO2
KLAL 180755Z AUTO 01008KT 10SM BKN012 BKN017 20/20 A3005 RMK AO2
KLAL 180735Z AUTO 01007KT 10SM BKN015 20/20 A3005 RMK AO2
KLAL 180715Z AUTO 02005KT 10SM SCT010 OVC015 20/20 A3006 RMK AO2
KLAL 180655Z AUTO 03006KT 10SM SCT010 SCT015 20/20 A3006 RMK AO2 LTG DSNT W
KLAL 180635Z AUTO 02008KT 10SM CLR 20/20 A3006 RMK AO2
KLAL 180515Z AUTO 02007KT 10SM SCT014 21/20 A3009 RMK AO2
KLAL 180455Z AUTO 02010G14KT 10SM SCT014 21/19 A3009 RMK AO2
KLAL 180315Z AUTO 03008G15KT 10SM OVC018 22/19 A3010 RMK AO2
KLAL 180255Z AUTO 02008KT 10SM OVC018 22/20 A3011 RMK AO2
KLAL 180235Z AUTO 03010KT 10SM OVC018 22/20 A3010 RMK AO2
KLAL 180145Z 04010KT 10SM BKN025 23/20 A3009